Accueil
METAR-TAF:

METAR-TAF

Aéroports :

Paris-Charles De Gaulle, France

Aéroport de Paris-Charles-de-Gaulle

latitude: 49-01N, longitude: 002-32E, altitude: 118 m

Observation

Le bulletin a été fait il y a 43 minutes, à 01:00 UTC
Vent 4 kt de ouest
Température 15°C
Humidité 77%
Pression 1020 hPa
Visibilité 10 km ou plus
pas de nuages en-dessous de 1500 mètres et pas de cumulonimbus.

METAR: LFPG 240100Z 28004KT CAVOK 15/11 Q1020 NOSIG

Heure: 03:43 (01:43 UTC)

Prévision

Le bulletin a été fait il y a 8 heures et 43 minutes, à 17:00 UTC
Prévision valable du 23 à 18 UTC au 24 à 24 UTC
Vent 10 kt de ouest/nord-ouest
Visibilité 10 km ou plus
pas de nuages en-dessous de 1500 mètres et pas de cumulonimbus.
Evoluant progressivement
du 24 à 03 UTC au 24 à 05 UTC
Vent 5 kt de ouest/sud-ouest

TAF: LFPG 231700Z 2318/2424 30010KT CAVOK BECMG 2403/2405 24005KT TX28/2415Z TN15/2404Z

Observations et prévisions météorologiques de plus de 4000 aéroports (messages METAR et TAF).

Les stations disponibles sont représentées par des disques jaunes et rouges sur la carte.

Passer la souris dessus pour voir le nom de la station.

Cliquer dessus pour voir les observations et prévisions météorologiques.

Pour changer de carte: cliquez sur les boutons verts avec une croix noire pour zoomer, sur le bouton vert avec un tiret pour effectuer un zoom arrière, ou sur les flèches vertes pour les cartes adjacentes.


METAR-TAF: